sensor_id;sensor_type;location;lat;lon;timestamp;pressure;altitude;pressure_sealevel;temperature;humidity
77454;BME280;66538;53.150;18.160;2023-04-01T00:01:10;99341.77;;;10.29;85.10
77454;BME280;66538;53.150;18.160;2023-04-01T00:03:38;99339.98;;;10.28;85.35
77454;BME280;66538;53.150;18.160;2023-04-01T00:06:05;99345.23;;;10.29;85.17
77454;BME280;66538;53.150;18.160;2023-04-01T00:08:32;99341.48;;;10.29;85.14
77454;BME280;66538;53.150;18.160;2023-04-01T00:10:59;99339.13;;;10.28;85.14
77454;BME280;66538;53.150;18.160;2023-04-01T00:13:26;99337.36;;;10.27;85.28
77454;BME280;66538;53.150;18.160;2023-04-01T00:15:55;99335.04;;;10.26;84.89
77454;BME280;66538;53.150;18.160;2023-04-01T00:18:21;99338.11;;;10.24;85.21
77454;BME280;66538;53.150;18.160;2023-04-01T00:20:50;99336.09;;;10.23;85.12
77454;BME280;66538;53.150;18.160;2023-04-01T00:23:18;99336.39;;;10.21;85.35
77454;BME280;66538;53.150;18.160;2023-04-01T00:25:46;99337.97;;;10.20;85.25
77454;BME280;66538;53.150;18.160;2023-04-01T00:28:15;99333.48;;;10.19;85.31
77454;BME280;66538;53.150;18.160;2023-04-01T00:30:42;99333.00;;;10.19;85.32
77454;BME280;66538;53.150;18.160;2023-04-01T00:33:09;99332.64;;;10.18;85.32
77454;BME280;66538;53.150;18.160;2023-04-01T00:35:37;99329.75;;;10.16;85.28
77454;BME280;66538;53.150;18.160;2023-04-01T00:38:04;99330.23;;;10.17;85.38
77454;BME280;66538;53.150;18.160;2023-04-01T00:40:39;99333.00;;;10.16;85.40
77454;BME280;66538;53.150;18.160;2023-04-01T00:43:15;99332.83;;;10.14;85.49
77454;BME280;66538;53.150;18.160;2023-04-01T00:45:45;99325.89;;;10.14;85.44
77454;BME280;66538;53.150;18.160;2023-04-01T00:48:29;99328.37;;;10.14;85.40
77454;BME280;66538;53.150;18.160;2023-04-01T00:51:01;99327.33;;;10.12;85.58
77454;BME280;66538;53.150;18.160;2023-04-01T00:53:30;99326.29;;;10.10;85.36
77454;BME280;66538;53.150;18.160;2023-04-01T00:56:22;99329.98;;;10.10;85.44
77454;BME280;66538;53.150;18.160;2023-04-01T00:58:52;99325.52;;;10.08;85.57
77454;BME280;66538;53.150;18.160;2023-04-01T01:01:22;99326.41;;;10.06;85.61
77454;BME280;66538;53.150;18.160;2023-04-01T01:03:50;99323.65;;;10.05;85.45
77454;BME280;66538;53.150;18.160;2023-04-01T01:06:23;99322.56;;;10.01;85.44
77454;BME280;66538;53.150;18.160;2023-04-01T01:09:26;99320.00;;;10.00;85.52
77454;BME280;66538;53.150;18.160;2023-04-01T01:12:03;99319.63;;;9.99;85.43
77454;BME280;66538;53.150;18.160;2023-04-01T01:14:45;99316.59;;;9.96;85.48
77454;BME280;66538;53.150;18.160;2023-04-01T01:17:34;99314.17;;;9.95;85.58
77454;BME280;66538;53.150;18.160;2023-04-01T01:20:35;99318.48;;;9.93;85.64
77454;BME280;66538;53.150;18.160;2023-04-01T01:35:24;99324.13;;;9.80;85.79
77454;BME280;66538;53.150;18.160;2023-04-01T01:37:59;99327.92;;;9.74;85.91
77454;BME280;66538;53.150;18.160;2023-04-01T01:40:27;99322.56;;;9.71;85.90
77454;BME280;66538;53.150;18.160;2023-04-01T01:42:56;99326.66;;;9.68;86.22
77454;BME280;66538;53.150;18.160;2023-04-01T01:45:26;99325.52;;;9.66;86.16
77454;BME280;66538;53.150;18.160;2023-04-01T01:47:54;99328.21;;;9.63;86.18
77454;BME280;66538;53.150;18.160;2023-04-01T01:50:23;99326.78;;;9.61;86.43
77454;BME280;66538;53.150;18.160;2023-04-01T01:53:07;99321.75;;;9.57;86.41
77454;BME280;66538;53.150;18.160;2023-04-01T01:55:37;99323.02;;;9.53;86.39
77454;BME280;66538;53.150;18.160;2023-04-01T01:58:11;99323.73;;;9.53;86.32
77454;BME280;66538;53.150;18.160;2023-04-01T02:00:44;99320.45;;;9.51;86.33
77454;BME280;66538;53.150;18.160;2023-04-01T02:03:14;99323.44;;;9.50;86.37
77454;BME280;66538;53.150;18.160;2023-04-01T02:05:41;99320.52;;;9.46;86.27
77454;BME280;66538;53.150;18.160;2023-04-01T02:08:16;99319.48;;;9.47;86.41
77454;BME280;66538;53.150;18.160;2023-04-01T02:10:55;99332.54;;;9.47;86.31
77454;BME280;66538;53.150;18.160;2023-04-01T02:13:31;99325.39;;;9.47;86.19
77454;BME280;66538;53.150;18.160;2023-04-01T02:16:06;99327.94;;;9.47;86.39
77454;BME280;66538;53.150;18.160;2023-04-01T02:18:36;99329.31;;;9.45;86.38
77454;BME280;66538;53.150;18.160;2023-04-01T02:21:07;99328.89;;;9.45;86.57
77454;BME280;66538;53.150;18.160;2023-04-01T02:23:36;99330.04;;;9.43;86.33
77454;BME280;66538;53.150;18.160;2023-04-01T02:26:06;99327.64;;;9.42;86.59
77454;BME280;66538;53.150;18.160;2023-04-01T02:28:36;99327.02;;;9.39;86.45
77454;BME280;66538;53.150;18.160;2023-04-01T02:31:05;99326.34;;;9.38;86.28
77454;BME280;66538;53.150;18.160;2023-04-01T02:33:32;99324.05;;;9.35;86.42
77454;BME280;66538;53.150;18.160;2023-04-01T02:35:59;99328.48;;;9.36;86.50
77454;BME280;66538;53.150;18.160;2023-04-01T02:38:26;99331.55;;;9.34;86.56
77454;BME280;66538;53.150;18.160;2023-04-01T02:40:58;99332.66;;;9.32;86.54
77454;BME280;66538;53.150;18.160;2023-04-01T02:43:26;99336.90;;;9.30;86.62
77454;BME280;66538;53.150;18.160;2023-04-01T02:45:53;99335.58;;;9.29;86.55
77454;BME280;66538;53.150;18.160;2023-04-01T02:48:20;99339.48;;;9.27;86.63
77454;BME280;66538;53.150;18.160;2023-04-01T02:50:46;99342.23;;;9.25;86.73
77454;BME280;66538;53.150;18.160;2023-04-01T02:53:13;99343.74;;;9.22;86.70
77454;BME280;66538;53.150;18.160;2023-04-01T02:55:40;99344.46;;;9.22;86.68
77454;BME280;66538;53.150;18.160;2023-04-01T02:58:06;99344.85;;;9.20;86.89
77454;BME280;66538;53.150;18.160;2023-04-01T03:00:33;99347.27;;;9.19;86.83
77454;BME280;66538;53.150;18.160;2023-04-01T03:03:00;99352.36;;;9.18;86.84
77454;BME280;66538;53.150;18.160;2023-04-01T03:05:26;99351.38;;;9.15;87.00
77454;BME280;66538;53.150;18.160;2023-04-01T03:07:53;99353.50;;;9.14;87.01
77454;BME280;66538;53.150;18.160;2023-04-01T03:10:20;99355.33;;;9.11;87.10
77454;BME280;66538;53.150;18.160;2023-04-01T03:12:47;99357.84;;;9.10;87.27
77454;BME280;66538;53.150;18.160;2023-04-01T03:15:14;99360.23;;;9.09;87.25
77454;BME280;66538;53.150;18.160;2023-04-01T03:17:42;99363.77;;;9.08;87.03
77454;BME280;66538;53.150;18.160;2023-04-01T03:20:10;99366.88;;;9.07;87.23
77454;BME280;66538;53.150;18.160;2023-04-01T03:22:37;99368.15;;;9.05;87.07
77454;BME280;66538;53.150;18.160;2023-04-01T03:25:06;99370.97;;;9.04;87.09
77454;BME280;66538;53.150;18.160;2023-04-01T03:27:34;99367.52;;;9.03;87.24
77454;BME280;66538;53.150;18.160;2023-04-01T03:30:03;99366.63;;;9.01;86.96
77454;BME280;66538;53.150;18.160;2023-04-01T03:32:31;99369.56;;;9.00;87.35
77454;BME280;66538;53.150;18.160;2023-04-01T03:34:57;99373.73;;;8.99;87.19
77454;BME280;66538;53.150;18.160;2023-04-01T03:37:24;99374.66;;;8.95;87.42
77454;BME280;66538;53.150;18.160;2023-04-01T03:39:51;99377.23;;;8.93;87.22
77454;BME280;66538;53.150;18.160;2023-04-01T03:42:18;99379.83;;;8.89;87.03
77454;BME280;66538;53.150;18.160;2023-04-01T03:44:45;99381.25;;;8.87;87.03
77454;BME280;66538;53.150;18.160;2023-04-01T03:47:12;99381.84;;;8.84;87.21
77454;BME280;66538;53.150;18.160;2023-04-01T03:49:38;99383.52;;;8.79;87.37
77454;BME280;66538;53.150;18.160;2023-04-01T03:52:09;99385.40;;;8.75;87.08
77454;BME280;66538;53.150;18.160;2023-04-01T03:54:36;99383.67;;;8.71;87.14
77454;BME280;66538;53.150;18.160;2023-04-01T03:57:03;99383.38;;;8.68;87.26
77454;BME280;66538;53.150;18.160;2023-04-01T03:59:30;99386.50;;;8.65;87.31
77454;BME280;66538;53.150;18.160;2023-04-01T04:01:57;99389.40;;;8.62;87.35
77454;BME280;66538;53.150;18.160;2023-04-01T04:04:24;99390.67;;;8.59;87.34
77454;BME280;66538;53.150;18.160;2023-04-01T04:06:51;99396.11;;;8.57;87.23
77454;BME280;66538;53.150;18.160;2023-04-01T04:09:19;99402.78;;;8.56;87.38
77454;BME280;66538;53.150;18.160;2023-04-01T04:11:45;99402.93;;;8.52;87.39
77454;BME280;66538;53.150;18.160;2023-04-01T04:14:12;99407.23;;;8.49;87.68
77454;BME280;66538;53.150;18.160;2023-04-01T04:16:39;99407.61;;;8.44;87.48
77454;BME280;66538;53.150;18.160;2023-04-01T04:19:06;99411.53;;;8.41;87.27
77454;BME280;66538;53.150;18.160;2023-04-01T04:21:33;99412.15;;;8.39;87.20
77454;BME280;66538;53.150;18.160;2023-04-01T04:24:01;99416.93;;;8.37;87.42
77454;BME280;66538;53.150;18.160;2023-04-01T04:26:32;99417.30;;;8.33;87.30
77454;BME280;66538;53.150;18.160;2023-04-01T04:29:00;99420.30;;;8.30;87.42
77454;BME280;66538;53.150;18.160;2023-04-01T04:31:27;99424.13;;;8.26;87.65
77454;BME280;66538;53.150;18.160;2023-04-01T04:33:55;99426.96;;;8.21;87.15
77454;BME280;66538;53.150;18.160;2023-04-01T04:36:22;99429.03;;;8.18;87.29
77454;BME280;66538;53.150;18.160;2023-04-01T04:38:49;99432.00;;;8.13;87.27
77454;BME280;66538;53.150;18.160;2023-04-01T04:41:18;99438.05;;;8.08;87.13
77454;BME280;66538;53.150;18.160;2023-04-01T04:43:55;99439.81;;;8.03;87.30
77454;BME280;66538;53.150;18.160;2023-04-01T04:46:22;99442.35;;;7.97;87.26
77454;BME280;66538;53.150;18.160;2023-04-01T04:48:51;99442.55;;;7.93;87.35
77454;BME280;66538;53.150;18.160;2023-04-01T04:51:19;99445.04;;;7.90;87.43
77454;BME280;66538;53.150;18.160;2023-04-01T04:53:47;99451.70;;;7.89;87.21
77454;BME280;66538;53.150;18.160;2023-04-01T04:56:18;99454.82;;;7.85;87.45
77454;BME280;66538;53.150;18.160;2023-04-01T04:58:52;99459.59;;;7.83;87.49
77454;BME280;66538;53.150;18.160;2023-04-01T05:01:22;99458.47;;;7.81;87.24
77454;BME280;66538;53.150;18.160;2023-04-01T05:03:48;99454.98;;;7.77;87.38
77454;BME280;66538;53.150;18.160;2023-04-01T05:06:16;99464.48;;;7.78;87.37
77454;BME280;66538;53.150;18.160;2023-04-01T05:08:44;99466.00;;;7.77;87.36
77454;BME280;66538;53.150;18.160;2023-04-01T05:11:18;99466.98;;;7.75;87.47
77454;BME280;66538;53.150;18.160;2023-04-01T05:13:49;99473.98;;;7.73;87.24
77454;BME280;66538;53.150;18.160;2023-04-01T05:16:18;99475.55;;;7.71;87.22
77454;BME280;66538;53.150;18.160;2023-04-01T05:18:46;99478.45;;;7.65;87.07
77454;BME280;66538;53.150;18.160;2023-04-01T05:21:14;99479.61;;;7.61;87.10
77454;BME280;66538;53.150;18.160;2023-04-01T05:23:41;99485.56;;;7.60;87.11
77454;BME280;66538;53.150;18.160;2023-04-01T05:26:11;99483.27;;;7.54;87.18
77454;BME280;66538;53.150;18.160;2023-04-01T05:28:39;99489.07;;;7.50;87.06
77454;BME280;66538;53.150;18.160;2023-04-01T05:31:07;99492.34;;;7.47;87.15
77454;BME280;66538;53.150;18.160;2023-04-01T05:33:39;99495.30;;;7.44;87.71
77454;BME280;66538;53.150;18.160;2023-04-01T05:36:11;99493.21;;;7.42;87.26
77454;BME280;66538;53.150;18.160;2023-04-01T05:38:38;99496.09;;;7.40;86.99
77454;BME280;66538;53.150;18.160;2023-04-01T05:41:06;99498.15;;;7.39;87.45
77454;BME280;66538;53.150;18.160;2023-04-01T05:43:37;99499.23;;;7.38;87.31
77454;BME280;66538;53.150;18.160;2023-04-01T05:46:11;99499.55;;;7.38;87.42
77454;BME280;66538;53.150;18.160;2023-04-01T05:48:48;99499.98;;;7.37;87.42
77454;BME280;66538;53.150;18.160;2023-04-01T05:51:15;99504.85;;;7.39;86.99
77454;BME280;66538;53.150;18.160;2023-04-01T05:53:42;99501.87;;;7.40;87.00
77454;BME280;66538;53.150;18.160;2023-04-01T05:56:09;99505.63;;;7.42;87.14
77454;BME280;66538;53.150;18.160;2023-04-01T05:58:38;99509.19;;;7.44;87.10
77454;BME280;66538;53.150;18.160;2023-04-01T06:01:10;99511.50;;;7.46;87.23
77454;BME280;66538;53.150;18.160;2023-04-01T06:03:37;99514.52;;;7.48;86.96
77454;BME280;66538;53.150;18.160;2023-04-01T06:06:10;99509.80;;;7.50;86.76
77454;BME280;66538;53.150;18.160;2023-04-01T06:08:40;99511.79;;;7.53;86.73
77454;BME280;66538;53.150;18.160;2023-04-01T06:16:39;99517.23;;;7.57;86.50
77454;BME280;66538;53.150;18.160;2023-04-01T06:31:07;99531.10;;;7.69;86.46
77454;BME280;66538;53.150;18.160;2023-04-01T06:38:53;99536.98;;;7.78;86.25
77454;BME280;66538;53.150;18.160;2023-04-01T06:41:31;99539.66;;;7.82;86.00
77454;BME280;66538;53.150;18.160;2023-04-01T06:44:14;99541.77;;;7.85;85.81
77454;BME280;66538;53.150;18.160;2023-04-01T06:47:22;99543.16;;;7.88;86.02
77454;BME280;66538;53.150;18.160;2023-04-01T06:50:07;99546.50;;;7.89;85.72
77454;BME280;66538;53.150;18.160;2023-04-01T06:56:08;99554.23;;;7.97;85.52
77454;BME280;66538;53.150;18.160;2023-04-01T06:59:26;99555.45;;;8.00;85.52
77454;BME280;66538;53.150;18.160;2023-04-01T07:01:59;99560.88;;;8.04;85.48
77454;BME280;66538;53.150;18.160;2023-04-01T07:04:31;99562.54;;;8.06;85.43
77454;BME280;66538;53.150;18.160;2023-04-01T07:07:01;99565.45;;;8.08;85.35
77454;BME280;66538;53.150;18.160;2023-04-01T07:09:34;99570.06;;;8.06;84.97
77454;BME280;66538;53.150;18.160;2023-04-01T07:15:22;99575.36;;;8.06;84.89
77454;BME280;66538;53.150;18.160;2023-04-01T07:17:58;99579.59;;;8.04;84.70
77454;BME280;66538;53.150;18.160;2023-04-01T07:20:32;99587.27;;;8.04;84.80
77454;BME280;66538;53.150;18.160;2023-04-01T07:23:06;99587.15;;;8.04;84.66
77454;BME280;66538;53.150;18.160;2023-04-01T07:26:01;99590.29;;;8.06;84.71
77454;BME280;66538;53.150;18.160;2023-04-01T07:28:53;99593.95;;;8.07;84.80
77454;BME280;66538;53.150;18.160;2023-04-01T07:31:47;99591.52;;;8.07;84.91
77454;BME280;66538;53.150;18.160;2023-04-01T07:34:25;99595.73;;;8.05;84.52
77454;BME280;66538;53.150;18.160;2023-04-01T07:37:15;99598.27;;;8.05;84.43
77454;BME280;66538;53.150;18.160;2023-04-01T07:43:15;99606.84;;;8.01;84.57
77454;BME280;66538;53.150;18.160;2023-04-01T07:54:05;99620.75;;;7.98;84.29
77454;BME280;66538;53.150;18.160;2023-04-01T07:59:40;99629.98;;;7.91;83.92
77454;BME280;66538;53.150;18.160;2023-04-01T08:05:10;99633.54;;;7.80;83.83
77454;BME280;66538;53.150;18.160;2023-04-01T08:08:19;99640.45;;;7.81;84.01
77454;BME280;66538;53.150;18.160;2023-04-01T08:10:59;99644.13;;;7.79;84.04
77454;BME280;66538;53.150;18.160;2023-04-01T08:17:19;99652.18;;;7.79;83.71
77454;BME280;66538;53.150;18.160;2023-04-01T08:25:20;99660.08;;;7.89;83.72
77454;BME280;66538;53.150;18.160;2023-04-01T08:30:49;99667.96;;;8.04;83.02
77454;BME280;66538;53.150;18.160;2023-04-01T08:33:27;99666.77;;;8.20;83.29
77454;BME280;66538;53.150;18.160;2023-04-01T08:39:12;99668.64;;;8.53;82.56
77454;BME280;66538;53.150;18.160;2023-04-01T08:54:13;99686.56;;;8.91;81.08
77454;BME280;66538;53.150;18.160;2023-04-01T08:56:53;99691.11;;;8.95;81.41
77454;BME280;66538;53.150;18.160;2023-04-01T09:03:19;99694.20;;;9.08;80.55
77454;BME280;66538;53.150;18.160;2023-04-01T09:06:29;99693.00;;;9.16;79.84
77454;BME280;66538;53.150;18.160;2023-04-01T09:10:04;99698.38;;;9.32;80.25
77454;BME280;66538;53.150;18.160;2023-04-01T09:34:19;99729.70;;;9.61;78.95
77454;BME280;66538;53.150;18.160;2023-04-01T09:38:57;99737.02;;;9.54;78.40
77454;BME280;66538;53.150;18.160;2023-04-01T09:41:30;99737.82;;;9.50;78.18
77454;BME280;66538;53.150;18.160;2023-04-01T09:44:15;99744.67;;;9.46;78.22
77454;BME280;66538;53.150;18.160;2023-04-01T09:50:33;99750.39;;;9.37;78.68
77454;BME280;66538;53.150;18.160;2023-04-01T10:16:01;99771.01;;;9.53;78.18
77454;BME280;66538;53.150;18.160;2023-04-01T10:21:59;99778.74;;;9.76;77.59
77454;BME280;66538;53.150;18.160;2023-04-01T10:27:59;99784.05;;;9.73;77.53
77454;BME280;66538;53.150;18.160;2023-04-01T10:41:54;99789.14;;;9.83;76.78
77454;BME280;66538;53.150;18.160;2023-04-01T10:50:24;99792.20;;;9.76;77.28
77454;BME280;66538;53.150;18.160;2023-04-01T10:59:31;99803.65;;;9.62;76.70
77454;BME280;66538;53.150;18.160;2023-04-01T11:13:39;99820.05;;;9.77;76.04
77454;BME280;66538;53.150;18.160;2023-04-01T11:25:36;99837.91;;;9.88;75.02
77454;BME280;66538;53.150;18.160;2023-04-01T11:34:22;99850.40;;;9.96;75.22
77454;BME280;66538;53.150;18.160;2023-04-01T11:40:20;99857.02;;;9.84;74.66
77454;BME280;66538;53.150;18.160;2023-04-01T11:46:41;99863.77;;;9.74;74.54
77454;BME280;66538;53.150;18.160;2023-04-01T11:52:39;99861.16;;;9.77;74.94
77454;BME280;66538;53.150;18.160;2023-04-01T11:57:52;99864.21;;;9.85;74.90
77454;BME280;66538;53.150;18.160;2023-04-01T12:15:00;99879.65;;;9.99;73.89
77454;BME280;66538;53.150;18.160;2023-04-01T12:37:21;99905.92;;;10.07;72.69
77454;BME280;66538;53.150;18.160;2023-04-01T12:45:34;99911.55;;;9.98;71.91
77454;BME280;66538;53.150;18.160;2023-04-01T12:51:20;99918.66;;;9.96;71.93
77454;BME280;66538;53.150;18.160;2023-04-01T12:56:39;99919.45;;;10.07;71.63
77454;BME280;66538;53.150;18.160;2023-04-01T13:02:30;99927.67;;;10.24;71.32
77454;BME280;66538;53.150;18.160;2023-04-01T13:08:27;99939.20;;;10.27;71.48
77454;BME280;66538;53.150;18.160;2023-04-01T13:14:15;99954.48;;;10.24;70.83
77454;BME280;66538;53.150;18.160;2023-04-01T13:19:38;99962.04;;;9.98;71.01
77454;BME280;66538;53.150;18.160;2023-04-01T13:22:17;99959.89;;;9.89;71.52
77454;BME280;66538;53.150;18.160;2023-04-01T13:25:03;99965.41;;;9.82;71.76
77454;BME280;66538;53.150;18.160;2023-04-01T13:27:45;99966.05;;;9.75;71.77
77454;BME280;66538;53.150;18.160;2023-04-01T13:30:35;99977.17;;;9.74;72.19
77454;BME280;66538;53.150;18.160;2023-04-01T13:33:26;99980.92;;;9.72;71.92
77454;BME280;66538;53.150;18.160;2023-04-01T13:36:11;99976.63;;;9.65;71.77
77454;BME280;66538;53.150;18.160;2023-04-01T13:38:59;99985.39;;;9.59;71.71
77454;BME280;66538;53.150;18.160;2023-04-01T13:41:54;99983.58;;;9.52;71.96
77454;BME280;66538;53.150;18.160;2023-04-01T14:04:00;100017.17;;;9.32;71.95
77454;BME280;66538;53.150;18.160;2023-04-01T14:06:53;100024.55;;;9.28;72.26
77454;BME280;66538;53.150;18.160;2023-04-01T14:12:16;100030.16;;;9.18;72.26
77454;BME280;66538;53.150;18.160;2023-04-01T14:18:39;100036.20;;;9.12;72.33
77454;BME280;66538;53.150;18.160;2023-04-01T14:23:23;100044.89;;;8.99;72.20
77454;BME280;66538;53.150;18.160;2023-04-01T14:26:20;100049.19;;;8.93;72.49
77454;BME280;66538;53.150;18.160;2023-04-01T14:48:50;100069.84;;;8.73;72.19
77454;BME280;66538;53.150;18.160;2023-04-01T14:54:13;100079.05;;;8.60;71.99
77454;BME280;66538;53.150;18.160;2023-04-01T14:56:50;100081.48;;;8.52;72.24
77454;BME280;66538;53.150;18.160;2023-04-01T15:02:02;100089.59;;;8.39;72.52
77454;BME280;66538;53.150;18.160;2023-04-01T15:04:44;100090.71;;;8.31;72.61
77454;BME280;66538;53.150;18.160;2023-04-01T15:07:40;100094.75;;;8.23;73.04
77454;BME280;66538;53.150;18.160;2023-04-01T15:21:56;100119.98;;;7.83;73.40
77454;BME280;66538;53.150;18.160;2023-04-01T15:30:05;100141.06;;;7.71;73.58
77454;BME280;66538;53.150;18.160;2023-04-01T15:32:54;100141.63;;;7.63;73.43
77454;BME280;66538;53.150;18.160;2023-04-01T15:41:14;100157.63;;;7.46;73.29
77454;BME280;66538;53.150;18.160;2023-04-01T15:43:44;100167.11;;;7.40;73.88
77454;BME280;66538;53.150;18.160;2023-04-01T15:49:00;100165.55;;;7.33;74.19
77454;BME280;66538;53.150;18.160;2023-04-01T15:54:31;100175.41;;;7.29;74.43
77454;BME280;66538;53.150;18.160;2023-04-01T15:57:20;100181.44;;;7.28;74.41
77454;BME280;66538;53.150;18.160;2023-04-01T16:00:06;100181.61;;;7.28;74.42
77454;BME280;66538;53.150;18.160;2023-04-01T16:14:07;100202.77;;;6.99;74.43
77454;BME280;66538;53.150;18.160;2023-04-01T16:22:09;100224.52;;;6.81;74.58
77454;BME280;66538;53.150;18.160;2023-04-01T16:24:51;100231.89;;;6.78;75.11
77454;BME280;66538;53.150;18.160;2023-04-01T16:27:44;100232.98;;;6.75;75.50
77454;BME280;66538;53.150;18.160;2023-04-01T16:30:35;100241.23;;;6.74;75.46
77454;BME280;66538;53.150;18.160;2023-04-01T16:33:12;100241.55;;;6.72;75.14
77454;BME280;66538;53.150;18.160;2023-04-01T16:35:58;100247.13;;;6.70;75.39
77454;BME280;66538;53.150;18.160;2023-04-01T16:41:31;100252.70;;;6.56;75.28
77454;BME280;66538;53.150;18.160;2023-04-01T16:44:27;100259.05;;;6.45;75.50
77454;BME280;66538;53.150;18.160;2023-04-01T16:47:07;100266.13;;;6.32;75.79
77454;BME280;66538;53.150;18.160;2023-04-01T16:49:42;100269.60;;;6.22;75.68
77454;BME280;66538;53.150;18.160;2023-04-01T16:52:15;100276.59;;;6.14;75.97
77454;BME280;66538;53.150;18.160;2023-04-01T16:55:00;100285.95;;;6.10;76.39
77454;BME280;66538;53.150;18.160;2023-04-01T16:57:45;100286.88;;;6.02;76.40
77454;BME280;66538;53.150;18.160;2023-04-01T17:00:30;100287.98;;;5.93;76.28
77454;BME280;66538;53.150;18.160;2023-04-01T17:11:19;100298.61;;;5.76;76.64
77454;BME280;66538;53.150;18.160;2023-04-01T17:16:28;100303.70;;;5.64;76.71
77454;BME280;66538;53.150;18.160;2023-04-01T17:19:13;100305.96;;;5.64;76.84
77454;BME280;66538;53.150;18.160;2023-04-01T17:24:29;100315.23;;;5.60;76.63
77454;BME280;66538;53.150;18.160;2023-04-01T17:33:02;100332.66;;;5.53;76.88
77454;BME280;66538;53.150;18.160;2023-04-01T17:35:39;100343.40;;;5.48;77.03
77454;BME280;66538;53.150;18.160;2023-04-01T17:49:35;100371.98;;;5.31;77.31
77454;BME280;66538;53.150;18.160;2023-04-01T17:52:16;100370.98;;;5.27;77.19
77454;BME280;66538;53.150;18.160;2023-04-01T17:54:57;100374.50;;;5.26;77.68
77454;BME280;66538;53.150;18.160;2023-04-01T17:57:42;100381.52;;;5.23;77.55
77454;BME280;66538;53.150;18.160;2023-04-01T18:00:45;100388.20;;;5.21;77.98
77454;BME280;66538;53.150;18.160;2023-04-01T18:22:33;100415.52;;;4.98;78.12
77454;BME280;66538;53.150;18.160;2023-04-01T18:25:30;100418.83;;;4.96;77.98
77454;BME280;66538;53.150;18.160;2023-04-01T18:28:30;100421.08;;;4.94;77.95
77454;BME280;66538;53.150;18.160;2023-04-01T18:33:34;100433.11;;;4.92;77.83
77454;BME280;66538;53.150;18.160;2023-04-01T18:36:26;100437.26;;;4.90;78.16
77454;BME280;66538;53.150;18.160;2023-04-01T18:44:56;100443.61;;;4.85;78.88
77454;BME280;66538;53.150;18.160;2023-04-01T18:53:08;100453.60;;;4.84;78.70
77454;BME280;66538;53.150;18.160;2023-04-01T18:55:43;100458.43;;;4.84;78.66
77454;BME280;66538;53.150;18.160;2023-04-01T19:03:33;100469.11;;;4.85;78.79
77454;BME280;66538;53.150;18.160;2023-04-01T19:06:14;100472.08;;;4.86;78.82
77454;BME280;66538;53.150;18.160;2023-04-01T19:08:43;100475.86;;;4.86;78.70
77454;BME280;66538;53.150;18.160;2023-04-01T19:11:22;100475.89;;;4.86;79.06
77454;BME280;66538;53.150;18.160;2023-04-01T19:16:33;100487.54;;;4.85;78.92
77454;BME280;66538;53.150;18.160;2023-04-01T19:19:24;100495.33;;;4.83;79.07
77454;BME280;66538;53.150;18.160;2023-04-01T19:21:57;100491.48;;;4.80;78.91
77454;BME280;66538;53.150;18.160;2023-04-01T19:25:01;100499.96;;;4.80;79.04
77454;BME280;66538;53.150;18.160;2023-04-01T19:27:42;100505.42;;;4.78;78.86
77454;BME280;66538;53.150;18.160;2023-04-01T19:36:48;100522.36;;;4.73;79.49
77454;BME280;66538;53.150;18.160;2023-04-01T19:39:37;100519.70;;;4.70;79.55
77454;BME280;66538;53.150;18.160;2023-04-01T19:42:21;100524.33;;;4.67;80.11
77454;BME280;66538;53.150;18.160;2023-04-01T19:48:01;100532.00;;;4.62;80.49
77454;BME280;66538;53.150;18.160;2023-04-01T19:50:38;100539.83;;;4.59;80.46
77454;BME280;66538;53.150;18.160;2023-04-01T19:53:31;100547.34;;;4.56;80.48
77454;BME280;66538;53.150;18.160;2023-04-01T19:56:12;100543.59;;;4.50;80.84
77454;BME280;66538;53.150;18.160;2023-04-01T19:59:12;100547.39;;;4.45;81.42
77454;BME280;66538;53.150;18.160;2023-04-01T20:01:50;100550.80;;;4.39;81.73
77454;BME280;66538;53.150;18.160;2023-04-01T20:04:30;100548.46;;;4.31;82.06
77454;BME280;66538;53.150;18.160;2023-04-01T20:07:02;100554.28;;;4.32;82.44
77454;BME280;66538;53.150;18.160;2023-04-01T20:10:09;100559.48;;;4.28;82.06
77454;BME280;66538;53.150;18.160;2023-04-01T20:15:21;100575.38;;;4.26;82.00
77454;BME280;66538;53.150;18.160;2023-04-01T20:17:53;100576.41;;;4.23;82.19
77454;BME280;66538;53.150;18.160;2023-04-01T20:20:26;100577.34;;;4.21;82.50
77454;BME280;66538;53.150;18.160;2023-04-01T20:26:02;100587.23;;;4.19;82.37
77454;BME280;66538;53.150;18.160;2023-04-01T20:44:50;100598.27;;;4.18;82.27
77454;BME280;66538;53.150;18.160;2023-04-01T20:53:21;100603.86;;;4.16;82.15
77454;BME280;66538;53.150;18.160;2023-04-01T20:56:17;100606.23;;;4.16;81.97
77454;BME280;66538;53.150;18.160;2023-04-01T20:59:14;100614.04;;;4.14;81.93
77454;BME280;66538;53.150;18.160;2023-04-01T21:07:22;100611.86;;;4.16;81.73
77454;BME280;66538;53.150;18.160;2023-04-01T21:13:11;100617.69;;;4.19;81.42
77454;BME280;66538;53.150;18.160;2023-04-01T21:21:35;100632.37;;;4.23;81.87
77454;BME280;66538;53.150;18.160;2023-04-01T21:29:40;100638.73;;;4.22;81.54
77454;BME280;66538;53.150;18.160;2023-04-01T21:32:31;100640.90;;;4.23;81.23
77454;BME280;66538;53.150;18.160;2023-04-01T21:40:42;100649.27;;;4.23;81.53
77454;BME280;66538;53.150;18.160;2023-04-01T21:43:36;100650.80;;;4.21;81.72
77454;BME280;66538;53.150;18.160;2023-04-01T21:54:46;100658.16;;;4.21;81.59
77454;BME280;66538;53.150;18.160;2023-04-01T22:08:42;100660.33;;;4.17;81.17
77454;BME280;66538;53.150;18.160;2023-04-01T22:14:14;100665.90;;;4.20;81.15
77454;BME280;66538;53.150;18.160;2023-04-01T22:17:02;100666.15;;;4.20;81.27
77454;BME280;66538;53.150;18.160;2023-04-01T22:25:56;100676.91;;;4.17;81.20
77454;BME280;66538;53.150;18.160;2023-04-01T22:31:20;100682.20;;;4.14;80.94
77454;BME280;66538;53.150;18.160;2023-04-01T22:34:07;100687.16;;;4.13;81.01
77454;BME280;66538;53.150;18.160;2023-04-01T22:36:59;100691.23;;;4.12;80.74
77454;BME280;66538;53.150;18.160;2023-04-01T22:42:28;100696.87;;;4.10;80.44